Time;durP1;ratioP1;P1;durP2;ratioP2;P2;SDS_P1;SDS_P2;PMS_P1;PMS_P2;Temp;Humidity;BMP_temperature;BMP_pressure;BME280_temperature;BME280_humidity;BME280_pressure;Samples;Min_cycle;Max_cycle;Signal;HPM_P1;HPM_P2
2022/02/25 00:02:16;;;;;;;1.95;1.40;;;4.50;99.90;;;;;;4990385;28;20057;-47
2022/02/25 00:04:41;;;;;;;5.00;1.20;;;4.60;99.90;;;;;;4989471;28;20042;-47
2022/02/25 00:07:07;;;;;;;4.55;1.20;;;4.60;99.90;;;;;;4991290;28;20078;-46
2022/02/25 00:09:33;;;;;;;3.22;1.98;;;4.60;99.90;;;;;;4991927;28;20425;-48
2022/02/25 00:11:58;;;;;;;6.20;1.33;;;4.60;99.90;;;;;;4992501;28;20030;-49
2022/02/25 00:14:24;;;;;;;6.13;1.77;;;4.60;99.90;;;;;;4993005;28;20088;-46
2022/02/25 00:16:49;;;;;;;4.97;1.20;;;4.50;99.90;;;;;;4993708;28;20026;-50
2022/02/25 00:19:15;;;;;;;8.02;1.20;;;4.50;99.90;;;;;;4993102;28;20482;-47
2022/02/25 00:21:41;;;;;;;1.83;1.00;;;4.40;99.90;;;;;;4993123;28;20030;-48
2022/02/25 00:24:08;;;;;;;3.75;1.42;;;4.40;99.90;;;;;;4992932;28;20538;-46
2022/02/25 00:26:34;;;;;;;2.97;1.25;;;4.40;99.90;;;;;;4992930;28;20109;-48
2022/02/25 00:28:59;;;;;;;1.80;1.25;;;4.40;99.90;;;;;;4993072;28;20093;-47
2022/02/25 00:31:25;;;;;;;3.75;1.15;;;4.30;99.90;;;;;;4993391;28;20042;-48
2022/02/25 00:33:50;;;;;;;2.50;1.25;;;4.30;99.90;;;;;;4991336;28;20022;-49
2022/02/25 00:36:16;;;;;;;1.45;1.27;;;4.30;99.90;;;;;;4992981;28;20057;-50
2022/02/25 00:38:41;;;;;;;5.15;1.55;;;4.30;99.90;;;;;;4992909;28;20023;-46
2022/02/25 00:41:07;;;;;;;7.22;1.52;;;4.40;99.90;;;;;;4992685;28;20030;-49
2022/02/25 00:43:32;;;;;;;2.67;1.08;;;4.40;99.90;;;;;;4992575;28;20034;-48
2022/02/25 00:45:58;;;;;;;6.63;1.33;;;4.40;99.90;;;;;;4992706;28;20026;-46
2022/02/25 00:48:24;;;;;;;4.05;1.48;;;4.40;99.90;;;;;;4991455;28;20030;-49
2022/02/25 00:50:49;;;;;;;3.63;1.30;;;4.40;99.90;;;;;;4992581;28;20065;-48
2022/02/25 00:53:15;;;;;;;3.65;1.10;;;4.40;99.90;;;;;;4992486;28;20034;-46
2022/02/25 00:55:40;;;;;;;2.05;1.40;;;4.40;99.90;;;;;;4991470;28;20033;-46
2022/02/25 00:58:06;;;;;;;2.03;1.13;;;4.30;99.90;;;;;;4992493;28;20053;-47
2022/02/25 01:00:31;;;;;;;4.20;1.00;;;4.30;99.90;;;;;;4992562;28;20026;-46
2022/02/25 01:02:57;;;;;;;1.27;1.02;;;4.30;99.90;;;;;;4992411;28;20035;-46
2022/02/25 01:05:23;;;;;;;1.38;1.05;;;4.20;99.90;;;;;;4992765;28;20026;-47
2022/02/25 01:07:48;;;;;;;7.85;1.65;;;4.10;99.90;;;;;;4992661;28;20029;-50
2022/02/25 01:10:16;;;;;;;4.30;1.70;;;4.10;99.90;;;;;;4992487;28;20588;-49
2022/02/25 01:12:43;;;;;;;4.45;1.67;;;4.00;99.90;;;;;;4991576;28;20092;-45
2022/02/25 01:15:10;;;;;;;3.25;1.35;;;4.00;99.90;;;;;;4992487;28;20033;-46
2022/02/25 01:17:36;;;;;;;4.50;1.70;;;4.00;99.90;;;;;;4990323;28;20030;-47
2022/02/25 01:20:03;;;;;;;2.20;1.38;;;3.90;99.90;;;;;;4992372;28;20030;-49
2022/02/25 01:22:28;;;;;;;2.25;1.48;;;3.90;99.90;;;;;;4991133;28;20037;-49
2022/02/25 01:24:54;;;;;;;10.13;1.50;;;3.80;99.90;;;;;;4992064;28;20030;-49
2022/02/25 01:27:20;;;;;;;1.73;1.45;;;3.70;99.90;;;;;;4992506;28;20026;-49
2022/02/25 01:29:46;;;;;;;5.57;1.60;;;3.70;99.90;;;;;;4992291;28;20081;-48
2022/02/25 01:32:11;;;;;;;3.53;1.70;;;3.70;99.90;;;;;;4992054;28;20026;-46
2022/02/25 01:34:37;;;;;;;3.20;1.70;;;3.80;99.90;;;;;;4991924;28;20034;-51
2022/02/25 01:37:04;;;;;;;1.90;1.52;;;3.80;99.90;;;;;;4992177;28;20105;-49
2022/02/25 01:39:30;;;;;;;1.83;1.73;;;3.80;99.90;;;;;;4992036;28;20023;-47
2022/02/25 01:41:56;;;;;;;3.00;1.10;;;3.80;99.90;;;;;;4992006;28;20057;-47
2022/02/25 01:44:23;;;;;;;2.45;1.30;;;3.70;99.90;;;;;;4991946;28;20058;-47
2022/02/25 01:46:50;;;;;;;1.45;1.30;;;3.70;99.90;;;;;;4991988;28;20026;-46
2022/02/25 01:49:16;;;;;;;5.78;1.85;;;3.50;99.90;;;;;;4992033;28;20043;-50
2022/02/25 01:51:43;;;;;;;2.38;1.40;;;3.50;99.90;;;;;;4991921;28;20069;-49
2022/02/25 01:54:09;;;;;;;9.18;1.40;;;3.50;99.90;;;;;;4991756;28;20038;-45
2022/02/25 01:56:39;;;;;;;2.35;1.55;;;3.50;99.90;;;;;;4991852;28;20048;-48
2022/02/25 01:59:05;;;;;;;4.57;1.40;;;3.50;99.90;;;;;;4991861;28;20034;-48
2022/02/25 02:01:31;;;;;;;4.13;1.38;;;3.50;99.90;;;;;;4991980;28;20046;-48
2022/02/25 02:03:57;;;;;;;7.03;1.58;;;3.50;99.90;;;;;;4991666;28;20122;-49
2022/02/25 02:06:23;;;;;;;1.63;1.20;;;3.50;99.90;;;;;;4991845;28;20027;-48
2022/02/25 02:08:49;;;;;;;6.78;2.20;;;3.50;99.90;;;;;;4992067;28;20027;-49
2022/02/25 02:11:33;;;;;;;4.30;1.60;;;3.60;99.90;;;;;;4990522;28;20045;-50
2022/02/25 02:14:01;;;;;;;6.22;1.38;;;3.60;99.90;;;;;;4991834;28;20026;-46
2022/02/25 02:16:27;;;;;;;2.17;1.45;;;3.50;99.90;;;;;;4991463;28;20052;-48
2022/02/25 02:18:53;;;;;;;5.55;1.45;;;3.50;99.90;;;;;;4991835;28;20031;-45
2022/02/25 02:21:26;;;;;;;5.03;2.92;;;3.50;99.90;;;;;;4991863;28;20108;-49
2022/02/25 02:23:53;;;;;;;6.78;1.75;;;3.50;99.90;;;;;;4991661;28;20496;-46
2022/02/25 02:26:19;;;;;;;9.48;1.55;;;3.50;99.90;;;;;;4995378;28;20031;-48
2022/02/25 02:28:45;;;;;;;3.47;1.42;;;3.40;99.90;;;;;;4995498;28;20085;-48
2022/02/25 02:31:10;;;;;;;4.82;1.92;;;3.40;99.90;;;;;;4995369;28;20093;-49
2022/02/25 02:33:37;;;;;;;3.83;1.67;;;3.40;99.90;;;;;;4994014;28;20042;-46
2022/02/25 02:36:03;;;;;;;2.10;1.20;;;3.40;99.90;;;;;;4995232;28;20503;-46
2022/02/25 02:38:29;;;;;;;4.78;1.50;;;3.40;99.90;;;;;;4995247;28;20034;-46
2022/02/25 02:40:55;;;;;;;4.88;1.67;;;3.30;99.90;;;;;;4993806;28;20042;-45
2022/02/25 02:43:21;;;;;;;2.42;1.00;;;3.30;99.90;;;;;;4995255;28;20032;-47
2022/02/25 02:45:46;;;;;;;2.00;1.20;;;3.30;99.90;;;;;;4995101;28;20077;-47
2022/02/25 02:48:12;;;;;;;2.40;1.08;;;3.30;99.90;;;;;;4994902;28;20026;-48
2022/02/25 02:50:38;;;;;;;2.80;1.42;;;3.20;99.90;;;;;;4995374;28;20432;-47
2022/02/25 02:53:03;;;;;;;2.13;1.20;;;3.20;99.90;;;;;;4994831;28;20072;-47
2022/02/25 02:55:29;;;;;;;4.15;1.67;;;3.20;99.90;;;;;;4995001;28;20153;-50
2022/02/25 02:57:54;;;;;;;4.65;1.77;;;3.20;99.90;;;;;;4994737;28;20113;-48
2022/02/25 03:00:20;;;;;;;9.10;1.50;;;3.30;99.90;;;;;;4994824;28;20037;-46
2022/02/25 03:02:45;;;;;;;3.70;1.40;;;3.30;99.90;;;;;;4994836;28;20026;-46
2022/02/25 03:05:11;;;;;;;4.38;1.15;;;3.30;99.90;;;;;;4995555;28;20026;-49
2022/02/25 03:07:37;;;;;;;8.43;2.53;;;3.30;99.90;;;;;;4995296;28;20505;-47
2022/02/25 03:10:05;;;;;;;2.10;1.27;;;3.30;99.90;;;;;;4994690;28;20030;-47
2022/02/25 03:12:31;;;;;;;1.35;1.25;;;3.30;99.90;;;;;;4994569;28;20019;-46
2022/02/25 03:14:56;;;;;;;7.78;1.45;;;3.30;99.90;;;;;;4994355;28;20030;-48
2022/02/25 03:17:22;;;;;;;7.20;1.45;;;3.30;99.90;;;;;;4994177;28;20033;-48
2022/02/25 03:19:47;;;;;;;5.35;1.30;;;3.30;99.90;;;;;;4994527;28;20053;-46
2022/02/25 03:22:13;;;;;;;2.90;1.30;;;3.30;99.90;;;;;;4994323;28;20475;-46
2022/02/25 03:24:39;;;;;;;8.85;1.55;;;3.30;99.90;;;;;;4994128;28;20080;-47
2022/02/25 03:27:04;;;;;;;9.52;1.85;;;3.20;99.90;;;;;;4994460;28;20281;-46
2022/02/25 03:29:30;;;;;;;6.85;1.70;;;3.20;99.90;;;;;;4994414;28;20027;-45
2022/02/25 03:31:56;;;;;;;4.05;1.63;;;3.10;99.90;;;;;;4994116;28;20022;-46
2022/02/25 03:34:21;;;;;;;7.13;1.48;;;3.10;99.90;;;;;;4994187;28;20030;-50
2022/02/25 03:36:47;;;;;;;9.02;1.40;;;3.00;99.90;;;;;;4993311;28;20033;-46
2022/02/25 03:39:12;;;;;;;5.53;1.40;;;3.00;99.90;;;;;;4994059;28;20034;-45
2022/02/25 03:41:38;;;;;;;3.25;1.77;;;3.00;99.90;;;;;;4994146;28;20055;-46
2022/02/25 03:44:04;;;;;;;13.27;1.65;;;2.90;99.90;;;;;;4995799;28;20053;-51
2022/02/25 03:46:29;;;;;;;3.38;1.65;;;2.90;99.90;;;;;;4996197;28;20375;-49
2022/02/25 03:48:55;;;;;;;11.23;2.10;;;2.90;99.90;;;;;;4993950;28;20034;-50
2022/02/25 03:51:21;;;;;;;6.28;2.00;;;2.90;99.90;;;;;;4994264;28;20029;-47
2022/02/25 03:53:48;;;;;;;3.05;1.27;;;2.90;99.90;;;;;;4993450;28;20437;-49
2022/02/25 03:56:15;;;;;;;5.13;1.30;;;2.90;99.90;;;;;;4993747;28;20062;-46
2022/02/25 03:58:40;;;;;;;5.53;1.50;;;2.90;99.90;;;;;;4993906;28;20454;-47
2022/02/25 04:01:06;;;;;;;10.77;2.95;;;2.90;99.90;;;;;;4993870;28;20287;-46
2022/02/25 04:03:31;;;;;;;4.82;1.48;;;2.80;99.90;;;;;;4993316;28;20023;-49
2022/02/25 04:05:57;;;;;;;15.65;2.88;;;2.80;99.90;;;;;;4993533;28;20018;-47
2022/02/25 04:08:22;;;;;;;6.43;2.75;;;2.70;99.90;;;;;;4993359;28;20403;-47
2022/02/25 04:10:48;;;;;;;2.85;1.55;;;2.70;99.90;;;;;;4993606;28;20035;-47
2022/02/25 04:13:13;;;;;;;8.98;1.60;;;2.70;99.90;;;;;;4993066;28;20030;-48
2022/02/25 04:15:39;;;;;;;6.18;1.77;;;2.60;99.90;;;;;;4993278;28;20027;-47
2022/02/25 04:18:05;;;;;;;5.20;1.45;;;2.50;99.90;;;;;;4992772;28;20109;-46
2022/02/25 04:20:30;;;;;;;4.43;2.20;;;2.50;99.90;;;;;;4993260;28;20113;-46
2022/02/25 04:22:56;;;;;;;6.50;1.67;;;2.40;99.90;;;;;;4992954;28;20019;-46
2022/02/25 04:25:21;;;;;;;8.00;1.73;;;2.40;99.90;;;;;;4993157;28;20030;-47
2022/02/25 04:27:47;;;;;;;2.92;1.58;;;2.30;99.90;;;;;;4993036;28;20022;-47
2022/02/25 04:30:13;;;;;;;2.92;1.05;;;2.30;99.90;;;;;;4993013;28;20019;-46
2022/02/25 04:32:38;;;;;;;10.57;1.50;;;2.30;99.90;;;;;;4992882;28;20389;-48
2022/02/25 04:35:04;;;;;;;15.75;2.42;;;2.30;99.90;;;;;;4992723;28;20102;-45
2022/02/25 04:37:30;;;;;;;5.90;1.70;;;2.30;99.90;;;;;;4991593;28;20112;-49
2022/02/25 04:39:56;;;;;;;9.35;1.50;;;2.30;99.90;;;;;;4991479;28;20077;-46
2022/02/25 04:42:23;;;;;;;8.10;1.63;;;2.30;99.90;;;;;;4992740;28;20019;-50
2022/02/25 04:44:48;;;;;;;5.47;1.85;;;2.30;99.90;;;;;;4992474;28;20061;-46
2022/02/25 04:47:14;;;;;;;6.55;1.85;;;2.30;99.90;;;;;;4992408;28;20058;-46
2022/02/25 04:49:39;;;;;;;4.70;1.70;;;2.30;99.90;;;;;;4992791;28;20022;-47
2022/02/25 04:52:06;;;;;;;7.45;1.30;;;2.40;99.90;;;;;;4992663;28;20030;-47
2022/02/25 04:54:32;;;;;;;10.82;2.03;;;2.50;99.90;;;;;;4992686;28;20022;-47
2022/02/25 04:56:58;;;;;;;7.53;2.45;;;2.50;99.90;;;;;;4992588;28;20026;-46
2022/02/25 04:59:23;;;;;;;6.03;1.65;;;2.60;99.90;;;;;;4992513;28;20022;-46
2022/02/25 05:01:49;;;;;;;8.63;1.75;;;2.60;99.90;;;;;;4992575;28;20015;-46
2022/02/25 05:04:14;;;;;;;14.60;2.13;;;2.60;99.90;;;;;;4992411;28;20496;-46
2022/02/25 05:06:40;;;;;;;3.70;1.48;;;2.60;99.90;;;;;;4992568;28;20065;-48
2022/02/25 05:09:06;;;;;;;9.43;2.65;;;2.50;99.90;;;;;;4992578;28;20026;-45
2022/02/25 05:11:31;;;;;;;6.97;1.92;;;2.50;99.90;;;;;;4991158;28;20169;-48
2022/02/25 05:13:57;;;;;;;9.40;2.45;;;2.50;99.90;;;;;;4992529;28;20026;-48
2022/02/25 05:21:51;;;;;;;8.45;2.00;;;2.40;99.90;;;;;;4992305;28;20037;-47
2022/02/25 05:24:17;;;;;;;7.10;2.10;;;2.40;99.90;;;;;;4990662;28;20026;-51
2022/02/25 05:26:43;;;;;;;8.10;1.98;;;2.30;99.90;;;;;;4990872;28;20065;-47
2022/02/25 05:29:09;;;;;;;9.05;3.00;;;2.30;99.90;;;;;;4992163;28;20053;-48
2022/02/25 05:31:35;;;;;;;9.52;1.83;;;2.30;99.90;;;;;;4990994;28;20037;-49
2022/02/25 05:34:01;;;;;;;13.07;2.20;;;2.30;99.90;;;;;;4991848;28;20026;-46
2022/02/25 05:36:26;;;;;;;8.18;2.20;;;2.20;99.90;;;;;;4992161;28;20105;-46
2022/02/25 05:38:53;;;;;;;14.77;2.47;;;2.30;99.90;;;;;;4990857;28;20049;-48
2022/02/25 05:41:19;;;;;;;7.32;3.25;;;2.30;99.90;;;;;;4992172;28;20022;-46
2022/02/25 05:43:44;;;;;;;3.88;2.08;;;2.20;99.90;;;;;;4990569;28;20034;-46
2022/02/25 05:46:10;;;;;;;8.88;2.40;;;2.20;99.90;;;;;;4992198;28;20038;-47
2022/02/25 05:48:36;;;;;;;11.70;2.63;;;2.20;99.90;;;;;;4992105;28;20105;-47
2022/02/25 05:51:01;;;;;;;14.50;3.50;;;2.20;99.90;;;;;;4992017;28;20395;-47
2022/02/25 05:53:27;;;;;;;10.02;2.58;;;2.10;99.90;;;;;;4990476;28;20031;-46
2022/02/25 05:55:53;;;;;;;17.20;4.10;;;2.10;99.90;;;;;;4992127;28;20034;-46
2022/02/25 05:58:18;;;;;;;4.38;1.95;;;2.10;99.90;;;;;;4992264;28;20474;-48
2022/02/25 06:00:44;;;;;;;5.18;1.50;;;2.10;99.90;;;;;;4995838;28;20027;-47
2022/02/25 06:03:10;;;;;;;5.68;2.47;;;2.00;99.90;;;;;;4995579;28;20072;-48
2022/02/25 06:05:37;;;;;;;4.40;2.15;;;2.00;99.90;;;;;;4995928;28;20026;-48
2022/02/25 06:08:02;;;;;;;9.07;2.38;;;2.00;99.90;;;;;;4994492;28;20084;-48
2022/02/25 06:10:28;;;;;;;5.05;2.08;;;2.00;99.90;;;;;;4995839;28;20030;-48
2022/02/25 06:12:53;;;;;;;4.95;2.05;;;2.00;99.90;;;;;;4995410;28;20034;-48
2022/02/25 06:15:19;;;;;;;8.85;2.58;;;2.00;99.90;;;;;;4996778;28;20509;-47
2022/02/25 06:17:47;;;;;;;10.77;2.25;;;2.00;99.90;;;;;;4995682;28;20125;-47
2022/02/25 06:20:14;;;;;;;8.20;2.60;;;2.10;99.90;;;;;;4995843;28;20019;-46
2022/02/25 06:22:39;;;;;;;6.88;2.95;;;2.00;99.90;;;;;;4995918;28;20029;-45
2022/02/25 06:25:05;;;;;;;4.50;2.10;;;2.10;99.90;;;;;;4995586;28;20022;-46
2022/02/25 06:27:31;;;;;;;9.05;3.00;;;2.10;99.90;;;;;;4995897;28;20019;-46
2022/02/25 06:29:56;;;;;;;8.55;2.30;;;2.20;99.90;;;;;;4995651;28;20030;-46
2022/02/25 06:32:22;;;;;;;10.35;2.53;;;2.20;99.90;;;;;;4995488;28;20046;-46
2022/02/25 06:34:47;;;;;;;5.68;2.22;;;2.20;99.90;;;;;;4995222;28;20409;-46
2022/02/25 06:37:13;;;;;;;13.10;3.00;;;2.20;99.90;;;;;;4995366;28;20040;-46
2022/02/25 06:39:39;;;;;;;10.57;3.20;;;2.30;99.90;;;;;;4995144;28;20050;-47
2022/02/25 06:42:04;;;;;;;12.55;2.85;;;2.40;99.90;;;;;;4995159;28;20062;-46
2022/02/25 06:44:30;;;;;;;11.35;3.03;;;2.50;99.90;;;;;;4994897;28;20065;-49
2022/02/25 06:46:55;;;;;;;20.27;3.88;;;2.60;99.90;;;;;;4995200;28;20073;-47
2022/02/25 06:49:21;;;;;;;8.88;2.95;;;2.70;99.90;;;;;;4995407;28;20501;-49
2022/02/25 06:51:46;;;;;;;9.95;2.72;;;2.80;99.90;;;;;;4995036;28;20350;-46
2022/02/25 06:54:12;;;;;;;7.45;3.22;;;3.00;99.90;;;;;;4995154;28;20469;-47
2022/02/25 06:56:37;;;;;;;5.57;2.75;;;3.10;99.90;;;;;;4994800;28;20030;-46
2022/02/25 06:59:03;;;;;;;9.40;2.60;;;3.20;99.90;;;;;;4995147;28;20064;-46
2022/02/25 07:01:28;;;;;;;14.82;3.85;;;3.30;99.90;;;;;;4994892;28;20029;-46
2022/02/25 07:03:54;;;;;;;12.80;2.50;;;3.40;99.90;;;;;;4994456;28;20038;-46
2022/02/25 07:06:24;;;;;;;7.40;3.45;;;3.50;99.90;;;;;;4994944;28;20102;-46
2022/02/25 07:08:51;;;;;;;12.68;3.50;;;3.70;99.90;;;;;;4995339;28;20026;-49
2022/02/25 07:11:17;;;;;;;10.27;2.70;;;4.10;99.90;;;;;;4994162;28;20101;-46
2022/02/25 07:13:42;;;;;;;5.03;2.67;;;4.50;99.90;;;;;;4994275;28;20118;-47
2022/02/25 07:16:09;;;;;;;10.38;3.22;;;4.80;99.90;;;;;;4994523;28;20101;-46
2022/02/25 07:18:35;;;;;;;6.45;4.18;;;5.20;99.90;;;;;;4994531;28;20092;-46
2022/02/25 07:21:00;;;;;;;11.68;3.42;;;5.40;99.90;;;;;;4994503;28;20027;-47
2022/02/25 07:23:26;;;;;;;7.38;3.25;;;5.60;99.90;;;;;;4994077;28;20026;-46
2022/02/25 07:25:51;;;;;;;7.35;2.90;;;5.70;99.90;;;;;;4994479;28;20026;-46
2022/02/25 07:28:17;;;;;;;10.05;2.78;;;5.80;99.90;;;;;;4994352;28;20030;-49
2022/02/25 07:30:42;;;;;;;11.35;3.53;;;6.00;99.90;;;;;;4994149;28;20112;-51
2022/02/25 07:33:08;;;;;;;7.63;3.05;;;6.10;99.90;;;;;;4992459;28;20120;-45
2022/02/25 07:35:33;;;;;;;16.27;3.92;;;6.40;99.90;;;;;;4994044;28;20026;-46
2022/02/25 07:38:00;;;;;;;8.25;3.13;;;6.60;99.90;;;;;;4994032;28;20026;-47
2022/02/25 07:40:27;;;;;;;8.15;3.10;;;6.40;99.90;;;;;;4993570;28;20049;-46
2022/02/25 07:42:53;;;;;;;14.02;3.30;;;6.00;99.90;;;;;;4992849;28;20454;-46
2022/02/25 07:45:18;;;;;;;17.30;5.05;;;5.40;99.90;;;;;;4993250;28;20479;-46
2022/02/25 07:47:44;;;;;;;13.43;4.30;;;5.10;99.90;;;;;;4993395;28;20055;-49
2022/02/25 07:50:14;;;;;;;16.17;4.93;;;4.80;99.90;;;;;;4993285;28;20034;-48
2022/02/25 07:52:40;;;;;;;6.38;3.33;;;4.60;99.90;;;;;;4993281;28;20034;-45
2022/02/25 07:55:08;;;;;;;12.00;4.13;;;4.50;99.90;;;;;;4990834;28;20053;-46
2022/02/25 07:57:35;;;;;;;8.38;3.65;;;4.40;99.90;;;;;;4977960;28;20314;-54
2022/02/25 08:00:05;;;;;;;13.98;3.80;;;4.40;99.90;;;;;;4992824;28;20022;-47
2022/02/25 08:02:30;;;;;;;14.98;4.35;;;4.30;99.90;;;;;;4974115;28;20121;-51
2022/02/25 08:04:56;;;;;;;19.33;4.75;;;4.30;99.90;;;;;;4988852;28;20065;-49
2022/02/25 08:07:21;;;;;;;13.32;4.28;;;4.40;99.90;;;;;;4974062;28;20454;-48
2022/02/25 08:09:47;;;;;;;12.68;3.78;;;4.40;99.90;;;;;;4973961;28;20043;-47
2022/02/25 08:12:12;;;;;;;9.50;4.90;;;4.50;99.90;;;;;;4973940;28;20034;-50
2022/02/25 08:14:40;;;;;;;15.98;4.75;;;4.50;99.90;;;;;;4973722;28;20093;-52
2022/02/25 08:17:05;;;;;;;14.50;4.15;;;4.50;99.90;;;;;;4973234;28;20035;-49
2022/02/25 08:19:31;;;;;;;14.45;4.22;;;4.50;99.90;;;;;;4974076;28;20550;-49
2022/02/25 08:21:56;;;;;;;15.65;4.82;;;4.50;99.90;;;;;;4973704;28;20067;-48
2022/02/25 08:24:22;;;;;;;13.60;5.03;;;4.50;99.90;;;;;;4973661;28;20022;-48
2022/02/25 08:26:47;;;;;;;17.88;3.65;;;4.50;99.90;;;;;;4973848;28;20105;-48
2022/02/25 08:29:13;;;;;;;14.18;4.57;;;4.60;99.90;;;;;;4973892;28;20503;-49
2022/02/25 08:31:38;;;;;;;10.85;4.47;;;4.70;99.90;;;;;;4974115;28;20467;-48
2022/02/25 08:34:04;;;;;;;12.75;3.97;;;4.70;99.90;;;;;;4973689;28;20041;-50
2022/02/25 08:36:30;;;;;;;10.30;3.90;;;4.70;99.90;;;;;;4973587;28;20030;-52
2022/02/25 08:38:56;;;;;;;11.77;4.57;;;4.70;99.90;;;;;;4973542;28;20030;-49
2022/02/25 08:41:21;;;;;;;10.88;3.72;;;4.80;99.90;;;;;;4973629;28;20145;-48
2022/02/25 08:43:47;;;;;;;17.48;3.50;;;4.80;99.90;;;;;;4988269;28;20030;-49
2022/02/25 08:46:13;;;;;;;25.15;3.78;;;4.80;99.90;;;;;;4973283;28;20027;-48
2022/02/25 08:48:39;;;;;;;14.43;3.70;;;4.90;99.90;;;;;;4973565;28;20113;-47
2022/02/25 08:51:05;;;;;;;16.95;4.13;;;5.00;99.90;;;;;;4973614;28;20523;-47
2022/02/25 08:53:31;;;;;;;11.90;4.82;;;5.10;99.90;;;;;;4973459;28;20030;-50
2022/02/25 08:55:56;;;;;;;16.38;4.35;;;5.10;99.90;;;;;;4973461;28;20035;-51
2022/02/25 08:58:22;;;;;;;18.33;3.85;;;5.10;99.90;;;;;;4973095;28;20026;-48
2022/02/25 09:00:48;;;;;;;13.82;4.30;;;5.10;99.90;;;;;;4973074;28;20499;-51
2022/02/25 09:03:14;;;;;;;12.38;3.45;;;5.30;99.90;;;;;;4972887;28;20033;-53
2022/02/25 09:05:40;;;;;;;10.70;3.13;;;5.30;99.90;;;;;;4973194;28;20443;-48
2022/02/25 09:08:06;;;;;;;11.32;3.22;;;5.40;99.90;;;;;;4973049;28;20027;-51
2022/02/25 09:10:31;;;;;;;17.08;3.70;;;5.50;99.90;;;;;;4972925;28;20054;-48
2022/02/25 09:12:57;;;;;;;14.35;3.83;;;5.70;99.90;;;;;;4972734;28;20133;-48
2022/02/25 09:15:26;;;;;;;11.35;3.88;;;5.90;99.90;;;;;;4987797;28;20019;-49
2022/02/25 09:17:59;;;;;;;14.02;3.72;;;6.10;99.90;;;;;;4972699;28;20030;-48
2022/02/25 09:20:26;;;;;;;12.60;3.08;;;6.40;99.90;;;;;;4973032;28;20059;-49
2022/02/25 09:22:52;;;;;;;10.52;3.95;;;6.50;99.90;;;;;;4972752;28;20037;-52
2022/02/25 09:25:18;;;;;;;9.00;3.20;;;6.50;99.90;;;;;;4986159;28;20038;-49
2022/02/25 09:27:44;;;;;;;8.20;3.50;;;6.30;99.90;;;;;;4992315;28;20027;-50
2022/02/25 09:30:13;;;;;;;11.82;3.28;;;6.20;99.90;;;;;;4992202;28;20033;-54
2022/02/25 09:32:39;;;;;;;11.90;4.53;;;6.10;99.90;;;;;;4991748;28;20019;-47
2022/02/25 09:35:06;;;;;;;15.80;3.78;;;6.00;99.90;;;;;;4991791;28;20037;-53
2022/02/25 09:37:34;;;;;;;14.20;4.10;;;5.90;99.90;;;;;;4991639;28;20034;-46
2022/02/25 09:40:27;;;;;;;18.15;4.15;;;5.80;99.90;;;;;;4991540;28;20026;-48
2022/02/25 09:42:53;;;;;;;12.18;3.78;;;5.90;99.90;;;;;;4986150;28;20411;-57
2022/02/25 09:45:19;;;;;;;9.95;3.72;;;5.90;99.90;;;;;;4990627;28;20026;-52
2022/02/25 09:47:45;;;;;;;9.70;4.05;;;5.80;99.90;;;;;;4972692;28;20025;-53
2022/02/25 09:50:13;;;;;;;15.95;4.80;;;5.80;99.90;;;;;;4972581;28;20130;-50
2022/02/25 09:52:40;;;;;;;15.57;4.40;;;5.80;99.90;;;;;;4973931;28;20570;-50
2022/02/25 09:55:19;;;;;;;14.77;4.55;;;6.10;99.90;;;;;;4991797;28;20035;-50
2022/02/25 09:57:45;;;;;;;13.38;4.45;;;6.40;99.90;;;;;;4991457;28;20086;-54
2022/02/25 10:00:11;;;;;;;11.55;3.72;;;6.80;99.90;;;;;;4988306;28;20133;-50
2022/02/25 10:02:43;;;;;;;9.23;3.10;;;7.80;99.90;;;;;;4992291;28;20080;-49
2022/02/25 10:05:11;;;;;;;8.85;2.88;;;8.70;99.90;;;;;;4992797;28;20032;-51
2022/02/25 10:07:37;;;;;;;12.23;3.15;;;9.50;99.30;;;;;;4992004;28;20026;-54
2022/02/25 10:10:03;;;;;;;11.48;2.75;;;10.20;98.60;;;;;;4992078;28;20032;-50
2022/02/25 10:12:29;;;;;;;12.25;3.67;;;10.30;97.50;;;;;;4991971;28;20089;-50
2022/02/25 10:14:54;;;;;;;13.40;3.55;;;9.70;97.30;;;;;;4990285;28;20038;-49
2022/02/25 10:17:22;;;;;;;6.70;2.95;;;8.90;98.70;;;;;;4979403;28;20066;-51
2022/02/25 10:19:51;;;;;;;9.60;3.58;;;8.30;99.90;;;;;;4970787;28;20050;-50
2022/02/25 10:22:18;;;;;;;13.60;4.13;;;7.60;99.90;;;;;;4972278;28;20030;-50
2022/02/25 10:25:04;;;;;;;17.15;3.33;;;7.30;99.90;;;;;;4972214;28;20034;-50
2022/02/25 10:27:35;;;;;;;12.00;3.22;;;7.10;99.90;;;;;;4972312;28;20023;-49
2022/02/25 10:30:11;;;;;;;15.15;3.67;;;6.90;99.90;;;;;;4972429;28;20031;-48
2022/02/25 10:32:44;;;;;;;19.10;4.55;;;6.70;99.90;;;;;;4970871;28;20084;-52
2022/02/25 10:35:21;;;;;;;11.75;3.67;;;6.60;99.90;;;;;;4972220;28;20397;-50
2022/02/25 10:38:01;;;;;;;7.35;2.95;;;6.50;99.90;;;;;;4972123;28;20055;-49
2022/02/25 10:40:51;;;;;;;8.20;2.65;;;6.40;99.90;;;;;;4970872;28;20023;-52
2022/02/25 10:43:19;;;;;;;10.73;3.28;;;6.30;99.90;;;;;;4963258;28;20034;-49
2022/02/25 10:45:47;;;;;;;16.23;5.00;;;6.30;99.90;;;;;;4994145;28;20385;-52
2022/02/25 10:48:15;;;;;;;11.82;3.55;;;6.30;99.90;;;;;;4994902;28;20054;-54
2022/02/25 10:50:48;;;;;;;21.90;4.65;;;6.20;99.90;;;;;;4994006;28;20050;-52
2022/02/25 10:53:31;;;;;;;10.00;2.88;;;6.20;99.90;;;;;;4987830;28;20027;-54
2022/02/25 10:56:04;;;;;;;10.35;3.53;;;6.10;99.90;;;;;;4975620;28;20101;-52
2022/02/25 10:58:45;;;;;;;12.00;3.33;;;6.10;99.90;;;;;;5000425;28;20058;-52
2022/02/25 11:01:12;;;;;;;9.13;3.25;;;6.10;99.90;;;;;;5012435;28;20028;-50
2022/02/25 11:03:39;;;;;;;13.63;3.22;;;6.00;99.90;;;;;;5012465;28;20026;-53
2022/02/25 11:06:12;;;;;;;11.38;2.97;;;6.00;99.90;;;;;;5000167;28;20041;-55
2022/02/25 11:08:39;;;;;;;9.57;3.47;;;5.90;99.90;;;;;;5011578;28;20112;-51
2022/02/25 11:11:05;;;;;;;17.05;4.38;;;6.00;99.90;;;;;;5004422;28;20034;-49
2022/02/25 11:13:32;;;;;;;12.23;2.65;;;6.00;99.90;;;;;;4995050;28;20069;-49
2022/02/25 11:15:58;;;;;;;10.68;2.72;;;6.00;99.90;;;;;;4994815;28;20494;-51
2022/02/25 11:18:24;;;;;;;11.27;3.30;;;6.00;99.90;;;;;;4992652;28;20038;-52
2022/02/25 11:20:51;;;;;;;12.38;3.53;;;5.90;99.90;;;;;;4994373;28;20387;-48
2022/02/25 11:23:17;;;;;;;10.10;2.65;;;6.10;99.90;;;;;;4994323;28;20402;-55
2022/02/25 11:25:45;;;;;;;9.10;3.97;;;6.10;99.90;;;;;;5005729;28;20088;-50
2022/02/25 11:28:11;;;;;;;15.55;2.90;;;6.10;99.90;;;;;;5000482;28;20422;-49
2022/02/25 11:30:46;;;;;;;12.02;2.53;;;6.00;99.90;;;;;;4992263;28;20098;-49
2022/02/25 11:33:16;;;;;;;12.37;3.30;;;6.00;99.90;;;;;;4993825;28;20025;-50
2022/02/25 11:35:49;;;;;;;10.70;3.10;;;6.00;99.90;;;;;;4974462;28;20054;-56
2022/02/25 11:38:15;;;;;;;13.77;3.42;;;6.00;99.90;;;;;;4974615;28;20050;-51
2022/02/25 11:41:02;;;;;;;16.63;3.92;;;6.10;99.90;;;;;;4974470;28;20479;-52
2022/02/25 11:43:39;;;;;;;12.70;3.20;;;6.10;99.90;;;;;;4974228;28;20026;-50
2022/02/25 11:46:42;;;;;;;8.95;2.92;;;6.10;99.90;;;;;;4974498;28;20479;-50
2022/02/25 11:49:07;;;;;;;10.10;2.78;;;6.20;99.90;;;;;;4895806;29;20084;-49
2022/02/25 11:51:37;;;;;;;9.48;2.60;;;6.20;99.90;;;;;;4957651;28;20114;-54
2022/02/25 11:54:21;;;;;;;9.00;2.88;;;6.20;99.90;;;;;;4980793;28;20100;-52
2022/02/25 11:57:09;;;;;;;15.05;3.97;;;6.20;99.90;;;;;;4992501;28;20026;-49
2022/02/25 11:59:35;;;;;;;10.82;3.53;;;6.20;99.90;;;;;;4982442;28;20034;-49
2022/02/25 12:02:14;;;;;;;10.40;3.17;;;6.10;99.90;;;;;;4992707;28;20029;-52
2022/02/25 12:04:42;;;;;;;7.18;2.63;;;6.10;99.90;;;;;;4972524;28;20027;-55
2022/02/25 12:07:13;;;;;;;10.98;2.47;;;6.00;99.90;;;;;;4972637;28;20057;-56
2022/02/25 12:09:54;;;;;;;10.27;3.63;;;6.10;99.90;;;;;;4982355;28;20080;-56
2022/02/25 12:12:20;;;;;;;8.60;2.63;;;6.10;99.90;;;;;;4993354;28;20030;-52
2022/02/25 12:15:12;;;;;;;9.48;2.60;;;6.20;99.90;;;;;;4991788;28;20026;-54
2022/02/25 12:18:02;;;;;;;10.75;2.58;;;6.20;99.90;;;;;;5006537;23;20038;-47
2022/02/25 12:20:38;;;;;;;12.65;3.60;;;6.20;99.90;;;;;;4991991;28;20464;-53
2022/02/25 12:23:05;;;;;;;12.23;2.67;;;6.30;99.90;;;;;;4992924;28;20088;-47
2022/02/25 12:25:40;;;;;;;11.65;3.33;;;6.40;99.90;;;;;;4992873;28;20030;-52
2022/02/25 12:28:22;;;;;;;12.80;2.63;;;6.50;99.90;;;;;;4980358;28;20023;-50
2022/02/25 12:30:57;;;;;;;10.55;2.92;;;6.60;99.90;;;;;;4973578;28;20467;-48
2022/02/25 12:33:44;;;;;;;13.52;2.92;;;6.80;99.90;;;;;;4973487;28;20027;-48
2022/02/25 12:36:12;;;;;;;20.85;3.72;;;7.00;99.90;;;;;;4974360;28;20015;-48
2022/02/25 12:38:49;;;;;;;13.65;3.53;;;7.10;99.90;;;;;;4973518;28;20486;-50
2022/02/25 12:41:18;;;;;;;12.63;2.97;;;7.20;99.90;;;;;;4973633;28;20046;-51
2022/02/25 12:43:54;;;;;;;12.50;2.22;;;7.40;99.90;;;;;;4971713;28;20099;-52
2022/02/25 12:46:22;;;;;;;6.82;2.53;;;7.50;99.90;;;;;;4973309;28;20023;-49
2022/02/25 12:48:49;;;;;;;10.70;3.22;;;7.60;99.90;;;;;;4973029;28;20490;-49
2022/02/25 12:51:15;;;;;;;8.30;3.67;;;7.60;99.90;;;;;;4973342;28;20038;-47
2022/02/25 12:54:02;;;;;;;8.10;2.65;;;7.50;99.90;;;;;;4973083;28;20033;-47
2022/02/25 12:56:34;;;;;;;7.40;2.80;;;7.50;99.90;;;;;;4973465;28;20030;-45
2022/02/25 12:59:05;;;;;;;13.63;2.58;;;7.50;99.90;;;;;;4973176;28;20031;-49
2022/02/25 13:01:32;;;;;;;9.10;2.28;;;7.50;99.90;;;;;;4969362;28;20031;-52